函館市, 日本

2017年1月24日 05時57分 (GMT +0900)
道道347号線 | | Change Station

海拔 209 ft 41.83 °N, 140.76 °E | Updated 7 minutes ago

局部有雲
局部有雲
14.7 °F
感覺像 15 °F
1.9
風 變化 風 來自 東北偏北
Gusts 4.3 英里每小時

今日
高 -- | 低 -- °F
--% 降水機率
昨天
高 -- | 低 -- °F
Precip. -- 英寸
氣壓 29.89 英寸
能見度 3.1 英里
多雲 少數 800 ft
多雲時晴 1200 ft
多雲 2500 ft
風寒指數 15 °F
露點 10 °F
濕度 82%
降雨量 0.00 英寸
積雪深度 不適用。
6:56 AM 4:41 PM
殘月, 16% visible
SPECI RJSO 232046Z VRB01KT 5000 -SHSN FEW008 SCT012 BKN025 M05/M08 Q1012 RMK 1ST008 4CU012 7CU025 A2990
氣壓 29.89 英寸
能見度 3.1 英里
多雲 少數 800 ft
多雲時晴 1200 ft
多雲 2500 ft
風寒指數 15 °F
露點 10 °F
濕度 82%
降雨量 0.00 英寸
積雪深度 不適用。
6:56 AM 4:41 PM
殘月, 16% visible
SPECI RJSO 232046Z VRB01KT 5000 -SHSN FEW008 SCT012 BKN025 M05/M08 Q1012 RMK 1ST008 4CU012 7CU025 A2990

Get Your Daily Forecast Email!

Thanks for signing up!

Be on the lookout for a verification email in your inbox.

You'll start receiving the daily forecast at 8 AM.

×

10-Day Weather Forecast

No radar image for this location.
×

Almanac

天文

Jan. 24, 2017 昇起 降落
實際時間
民用曙暮光
航海曙暮光
天文學微明
月亮
可見光的長度
白晝時間
Tomorrow will be .
, % of the Moon is Illuminated

今天之最

國家高溫 國家低溫

Community

WunderPhotos

Upload Photos

1,962,540 照片已上傳!

WunderBlog® & News

Nearby

空氣質素

  空氣質素 空氣質素指數 污染物
Not available.

積雪量

Station 深度 海拔

地震活動

城市 距離 時間和日期
顯示的最小幅度是2.5。

沿海水溫

地點 溫度

Stations

附近的氣象站

氣象站位置 溫度 風寒指數 露點 濕度 Precip. 海拔 最近更新時間 類型